Time;durP1;ratioP1;P1;durP2;ratioP2;P2;SDS_P1;SDS_P2;PMS_P1;PMS_P2;Temp;Humidity;BMP_temperature;BMP_pressure;BME280_temperature;BME280_humidity;BME280_pressure;Samples;Min_cycle;Max_cycle;Signal;HPM_P1;HPM_P2
2022/08/13 00:01:16;;;;;;;4.57;4.17;;;18.40;1.00;;;;;;5035393;28;20877;-76
2022/08/13 00:03:44;;;;;;;4.53;4.13;;;18.40;1.00;;;;;;5035697;28;20434;-70
2022/08/13 00:06:11;;;;;;;18.20;14.43;;;18.40;1.00;;;;;;5034950;28;20402;-76
2022/08/13 00:08:39;;;;;;;17.50;8.90;;;18.40;1.00;;;;;;5035245;28;20449;-75
2022/08/13 00:11:07;;;;;;;6.83;5.67;;;18.40;1.00;;;;;;5035289;28;20454;-75
2022/08/13 00:13:33;;;;;;;5.60;4.30;;;18.40;1.00;;;;;;5034459;28;20407;-70
2022/08/13 00:15:59;;;;;;;6.40;5.27;;;18.40;1.00;;;;;;5034946;28;20446;-75
2022/08/13 00:18:29;;;;;;;3.87;3.30;;;18.50;1.00;;;;;;5035104;28;20509;-71
2022/08/13 00:20:58;;;;;;;4.37;4.07;;;18.50;1.00;;;;;;5034944;28;20249;-76
2022/08/13 00:23:26;;;;;;;3.83;3.40;;;18.60;1.00;;;;;;5035651;28;20406;-76
2022/08/13 00:25:55;;;;;;;4.10;3.60;;;18.60;1.00;;;;;;5033680;28;20476;-70
2022/08/13 00:28:28;;;;;;;5.70;3.47;;;18.70;1.00;;;;;;5034495;28;20509;-71
2022/08/13 00:30:54;;;;;;;3.43;3.23;;;18.70;1.00;;;;;;5034916;28;20815;-71
2022/08/13 00:33:22;;;;;;;3.87;3.53;;;18.70;1.00;;;;;;5034044;28;20497;-70
2022/08/13 00:35:51;;;;;;;3.80;3.50;;;18.70;1.00;;;;;;5035328;28;20410;-73
2022/08/13 00:38:28;;;;;;;3.27;3.07;;;18.60;1.00;;;;;;5032307;28;20438;-71
2022/08/13 00:40:57;;;;;;;3.80;3.50;;;18.60;1.00;;;;;;5033661;28;20410;-76
2022/08/13 00:43:25;;;;;;;4.17;3.77;;;18.60;1.00;;;;;;5043238;28;20425;-71
2022/08/13 00:45:50;;;;;;;4.17;3.87;;;18.60;1.00;;;;;;5054625;28;20393;-70
2022/08/13 00:51:01;;;;;;;4.60;3.70;;;18.60;1.00;;;;;;5035922;28;20214;-71
2022/08/13 00:53:30;;;;;;;6.27;3.63;;;18.60;1.00;;;;;;5044766;28;20413;-69
2022/08/13 00:55:58;;;;;;;5.67;3.00;;;18.70;1.00;;;;;;5047679;28;20524;-71
2022/08/13 00:58:27;;;;;;;3.90;3.50;;;18.70;1.00;;;;;;5033847;28;20435;-76
2022/08/13 01:00:58;;;;;;;3.70;3.43;;;18.60;1.00;;;;;;5050940;28;20448;-76
2022/08/13 01:03:29;;;;;;;3.40;3.10;;;18.60;1.00;;;;;;5054330;28;20961;-70
2022/08/13 01:05:59;;;;;;;6.33;4.17;;;18.60;1.00;;;;;;5036325;28;20419;-75
2022/08/13 01:08:26;;;;;;;3.73;3.30;;;18.60;1.00;;;;;;5036327;28;20453;-72
2022/08/13 01:10:56;;;;;;;4.10;3.13;;;18.60;1.00;;;;;;5033114;28;20500;-77
2022/08/13 01:13:26;;;;;;;3.00;2.80;;;18.50;1.00;;;;;;5043616;28;20417;-72
2022/08/13 01:15:52;;;;;;;3.60;3.30;;;18.50;1.00;;;;;;5047555;28;20418;-72
2022/08/13 01:18:22;;;;;;;4.20;3.80;;;18.50;1.00;;;;;;5043330;28;20945;-78
2022/08/13 01:20:58;;;;;;;4.70;3.60;;;18.40;1.00;;;;;;5050148;28;20568;-78
2022/08/13 01:23:25;;;;;;;6.20;4.00;;;18.40;1.00;;;;;;5032755;28;20791;-77
2022/08/13 01:25:52;;;;;;;4.27;3.50;;;18.40;1.00;;;;;;5036402;28;20567;-78
2022/08/13 01:28:19;;;;;;;3.90;3.60;;;18.30;1.00;;;;;;5052932;28;20440;-78
2022/08/13 01:30:46;;;;;;;4.13;3.73;;;18.30;1.00;;;;;;5045758;28;20514;-72
2022/08/13 01:33:16;;;;;;;3.80;3.50;;;18.30;1.00;;;;;;5033694;28;20395;-72
2022/08/13 01:35:42;;;;;;;3.53;3.23;;;18.20;1.00;;;;;;5038539;28;20425;-72
2022/08/13 01:38:08;;;;;;;3.33;3.10;;;18.20;1.00;;;;;;5033014;28;20461;-78
2022/08/13 01:40:34;;;;;;;5.87;3.67;;;18.20;1.00;;;;;;5034818;28;20417;-79
2022/08/13 01:43:03;;;;;;;4.30;4.00;;;18.20;1.00;;;;;;5033887;28;20398;-72
2022/08/13 01:45:30;;;;;;;4.70;4.07;;;18.20;1.00;;;;;;5034872;28;20401;-75
2022/08/13 01:50:41;;;;;;;3.60;3.30;;;18.30;1.00;;;;;;5050597;28;20425;-72
2022/08/13 01:53:08;;;;;;;4.93;3.30;;;18.30;1.00;;;;;;5033144;28;20906;-72
2022/08/13 01:55:38;;;;;;;4.00;2.60;;;18.40;1.00;;;;;;5034494;28;20414;-73
2022/08/13 01:58:07;;;;;;;3.33;3.13;;;18.50;1.00;;;;;;5032512;28;20968;-72
2022/08/13 02:00:33;;;;;;;3.17;2.97;;;18.50;1.00;;;;;;5035085;28;20406;-78
2022/08/13 02:03:04;;;;;;;4.23;3.30;;;18.50;1.00;;;;;;5044116;28;20413;-72
2022/08/13 02:05:31;;;;;;;3.80;3.23;;;18.50;1.00;;;;;;5036562;28;20752;-73
2022/08/13 02:07:57;;;;;;;3.70;3.37;;;18.50;1.00;;;;;;5036669;28;20434;-72
2022/08/13 02:10:23;;;;;;;6.70;3.80;;;18.50;1.00;;;;;;5042075;28;20987;-77
2022/08/13 02:12:49;;;;;;;3.80;3.60;;;18.50;1.00;;;;;;5052899;28;20448;-70
2022/08/13 02:15:16;;;;;;;5.70;3.60;;;18.50;1.00;;;;;;5043968;28;20222;-70
2022/08/13 02:17:42;;;;;;;5.03;3.60;;;18.50;1.00;;;;;;5039377;28;20929;-71
2022/08/13 02:20:17;;;;;;;3.97;3.60;;;18.60;1.00;;;;;;5053082;28;20397;-76
2022/08/13 02:22:47;;;;;;;3.60;3.30;;;18.50;1.00;;;;;;5044306;28;20452;-76
2022/08/13 02:25:17;;;;;;;3.77;3.37;;;18.50;1.00;;;;;;5036725;28;20471;-70
2022/08/13 02:27:44;;;;;;;5.23;3.73;;;18.50;1.00;;;;;;5032086;28;20490;-75
2022/08/13 02:30:11;;;;;;;3.50;3.20;;;18.50;1.00;;;;;;5032789;28;20440;-76
2022/08/13 02:32:40;;;;;;;8.83;4.70;;;18.60;1.00;;;;;;5036142;28;20527;-76
2022/08/13 02:35:08;;;;;;;3.87;3.40;;;18.60;1.00;;;;;;5052340;28;20479;-71
2022/08/13 02:37:35;;;;;;;3.60;3.40;;;18.60;1.00;;;;;;5047985;28;20426;-76
2022/08/13 02:40:04;;;;;;;4.60;2.80;;;18.70;1.00;;;;;;5032825;28;20895;-70
2022/08/13 02:42:33;;;;;;;5.30;3.77;;;18.80;1.00;;;;;;5035335;28;20445;-76
2022/08/13 02:44:59;;;;;;;3.60;3.37;;;18.80;1.00;;;;;;5052865;28;20500;-76
2022/08/13 02:47:25;;;;;;;3.77;3.47;;;18.80;1.00;;;;;;5050073;28;20516;-75
2022/08/13 02:49:52;;;;;;;4.27;3.37;;;18.80;1.00;;;;;;5051016;28;20409;-75
2022/08/13 02:52:24;;;;;;;3.67;2.43;;;18.80;1.00;;;;;;5050322;28;20449;-69
2022/08/13 02:54:50;;;;;;;3.00;2.80;;;18.80;1.00;;;;;;5032898;28;20399;-76
2022/08/13 02:57:16;;;;;;;4.07;3.67;;;18.70;1.00;;;;;;5036979;28;20735;-69
2022/08/13 02:59:42;;;;;;;3.27;3.07;;;18.70;1.00;;;;;;5033867;28;20405;-75
2022/08/13 03:02:08;;;;;;;3.37;3.17;;;18.60;1.00;;;;;;5037207;28;20168;-75
2022/08/13 03:04:34;;;;;;;6.53;3.33;;;18.60;1.00;;;;;;5045031;28;20786;-70
2022/08/13 03:07:02;;;;;;;3.83;3.40;;;18.60;1.00;;;;;;5050168;28;20184;-75
2022/08/13 03:09:29;;;;;;;3.80;3.50;;;18.50;1.00;;;;;;5035485;28;20461;-76
2022/08/13 03:11:59;;;;;;;3.67;2.80;;;18.50;1.00;;;;;;5038889;28;20445;-76
2022/08/13 03:14:28;;;;;;;3.73;3.37;;;18.50;1.00;;;;;;5056416;28;20401;-77
2022/08/13 03:16:54;;;;;;;3.70;3.20;;;18.40;1.00;;;;;;5042472;28;20448;-69
2022/08/13 03:19:20;;;;;;;4.27;3.70;;;18.40;1.00;;;;;;5036256;28;20442;-75
2022/08/13 03:21:45;;;;;;;5.40;3.10;;;18.40;1.00;;;;;;5047245;28;20182;-76
2022/08/13 03:24:17;;;;;;;3.40;3.10;;;18.30;1.00;;;;;;5055085;28;20179;-75
2022/08/13 03:26:44;;;;;;;3.13;2.93;;;18.30;1.00;;;;;;5053268;28;20179;-71
2022/08/13 03:29:11;;;;;;;3.90;3.60;;;18.40;1.00;;;;;;5055859;28;20524;-72
2022/08/13 03:31:37;;;;;;;3.50;3.20;;;18.30;1.00;;;;;;5048582;28;20460;-75
2022/08/13 03:34:04;;;;;;;5.47;3.30;;;18.30;1.00;;;;;;5036457;28;20748;-75
2022/08/13 03:36:31;;;;;;;4.80;2.63;;;18.30;1.00;;;;;;5055123;28;21004;-70
2022/08/13 03:38:57;;;;;;;4.20;3.80;;;18.30;1.00;;;;;;5040522;28;20445;-75
2022/08/13 03:41:24;;;;;;;3.97;3.17;;;18.20;1.00;;;;;;5035968;28;20402;-78
2022/08/13 03:43:51;;;;;;;3.40;3.10;;;18.20;1.00;;;;;;5047838;28;20428;-76
2022/08/13 03:46:20;;;;;;;3.73;3.43;;;18.20;1.00;;;;;;5055108;28;20459;-76
2022/08/13 03:48:47;;;;;;;3.50;3.20;;;18.10;1.00;;;;;;5041775;28;20437;-70
2022/08/13 03:51:14;;;;;;;3.33;3.03;;;18.10;1.00;;;;;;5035567;28;20847;-70
2022/08/13 03:53:42;;;;;;;9.70;3.33;;;18.10;1.00;;;;;;5047938;28;20413;-69
2022/08/13 03:56:10;;;;;;;3.47;3.23;;;18.10;1.00;;;;;;5054891;28;20902;-69
2022/08/13 03:58:37;;;;;;;7.63;4.80;;;18.10;1.00;;;;;;5039818;28;20430;-75
2022/08/13 04:01:04;;;;;;;4.03;3.60;;;18.10;1.00;;;;;;5038082;28;20942;-74
2022/08/13 04:03:36;;;;;;;3.30;3.00;;;18.10;1.00;;;;;;5036884;28;20480;-70
2022/08/13 04:06:09;;;;;;;3.80;3.30;;;18.10;1.00;;;;;;5034714;28;20457;-75
2022/08/13 04:08:37;;;;;;;8.77;3.60;;;18.10;1.00;;;;;;5035926;28;20849;-74
2022/08/13 04:11:09;;;;;;;5.00;3.10;;;18.10;1.00;;;;;;5034514;28;20442;-70
2022/08/13 04:13:38;;;;;;;3.20;3.00;;;18.20;1.00;;;;;;5035340;28;20429;-70
2022/08/13 04:16:27;;;;;;;3.27;2.97;;;18.10;1.00;;;;;;5035067;28;20410;-75
2022/08/13 04:18:54;;;;;;;3.43;3.13;;;18.10;1.00;;;;;;5048750;28;20437;-69
2022/08/13 04:21:21;;;;;;;3.40;3.20;;;18.10;1.00;;;;;;5047435;28;20497;-69
2022/08/13 04:23:48;;;;;;;3.73;3.00;;;18.10;1.00;;;;;;5035285;28;20426;-69
2022/08/13 04:26:15;;;;;;;5.03;4.00;;;18.10;1.00;;;;;;5036261;28;20771;-69
2022/08/13 04:28:43;;;;;;;4.13;3.83;;;18.10;1.00;;;;;;5044911;28;20430;-69
2022/08/13 04:31:10;;;;;;;3.93;3.27;;;18.10;1.00;;;;;;5034950;28;20442;-73
2022/08/13 04:33:37;;;;;;;2.93;2.73;;;18.10;1.00;;;;;;5038591;28;20409;-75
2022/08/13 04:36:04;;;;;;;3.53;3.33;;;18.00;1.00;;;;;;5052275;28;20430;-70
2022/08/13 04:38:30;;;;;;;5.53;3.70;;;18.00;1.00;;;;;;5034717;28;20795;-75
2022/08/13 04:40:56;;;;;;;4.63;3.30;;;18.10;1.00;;;;;;5034846;28;20411;-69
2022/08/13 04:43:22;;;;;;;3.40;3.10;;;18.10;1.00;;;;;;5054087;28;20751;-75
2022/08/13 04:45:48;;;;;;;5.10;3.10;;;18.10;1.00;;;;;;5054637;28;20405;-70
2022/08/13 04:48:15;;;;;;;6.10;3.80;;;18.20;1.00;;;;;;5035736;28;20445;-69
2022/08/13 04:50:46;;;;;;;5.30;3.70;;;18.20;1.00;;;;;;5034279;28;20542;-77
2022/08/13 04:53:35;;;;;;;4.60;3.87;;;18.30;1.00;;;;;;5051401;28;20420;-76
2022/08/13 04:56:02;;;;;;;3.83;3.27;;;18.30;1.00;;;;;;5052137;28;20937;-72
2022/08/13 04:58:33;;;;;;;4.80;3.50;;;18.30;1.00;;;;;;5035138;28;20438;-75
2022/08/13 05:01:09;;;;;;;2.97;2.67;;;18.30;1.00;;;;;;5044335;28;20890;-75
2022/08/13 05:03:41;;;;;;;3.67;3.13;;;18.30;1.00;;;;;;5053403;28;20413;-68
2022/08/13 05:06:11;;;;;;;3.00;2.80;;;18.30;1.00;;;;;;5036163;28;20418;-69
2022/08/13 05:08:39;;;;;;;4.10;2.90;;;18.30;1.00;;;;;;5045152;28;20977;-69
2022/08/13 05:11:06;;;;;;;4.90;2.50;;;18.20;1.00;;;;;;5053795;28;20507;-69
2022/08/13 05:13:37;;;;;;;8.57;3.10;;;18.20;1.00;;;;;;5052295;28;20418;-69
2022/08/13 05:16:09;;;;;;;3.40;3.10;;;18.20;1.00;;;;;;5047674;28;20572;-75
2022/08/13 05:18:37;;;;;;;3.60;3.27;;;18.20;1.00;;;;;;5034089;28;20430;-69
2022/08/13 05:21:08;;;;;;;3.93;3.13;;;18.20;1.00;;;;;;5038345;28;20445;-75
2022/08/13 05:23:36;;;;;;;3.70;3.40;;;18.20;1.00;;;;;;5053945;28;20408;-69
2022/08/13 05:26:03;;;;;;;3.27;3.07;;;18.30;1.00;;;;;;5048773;28;20748;-71
2022/08/13 05:28:30;;;;;;;3.13;2.93;;;18.30;1.00;;;;;;5033896;28;20484;-69
2022/08/13 05:30:56;;;;;;;3.40;3.10;;;18.30;6.60;;;;;;5034706;28;20461;-75
2022/08/13 05:33:25;;;;;;;3.67;3.37;;;18.30;1.00;;;;;;5033616;28;20402;-71
2022/08/13 05:35:59;;;;;;;4.63;3.47;;;18.30;1.00;;;;;;5041595;28;20456;-69
2022/08/13 05:38:27;;;;;;;3.10;2.83;;;18.40;5.30;;;;;;5033512;28;20450;-70
2022/08/13 05:40:56;;;;;;;4.00;3.70;;;18.40;2.40;;;;;;5046104;28;20417;-69
2022/08/13 05:43:24;;;;;;;4.00;3.63;;;18.40;2.10;;;;;;5053566;28;20485;-69
2022/08/13 05:45:59;;;;;;;3.93;3.60;;;18.50;1.00;;;;;;5053551;28;20463;-69
2022/08/13 05:48:26;;;;;;;3.13;2.57;;;18.60;1.00;;;;;;5053431;28;20482;-75
2022/08/13 05:50:53;;;;;;;3.87;3.57;;;18.70;1.00;;;;;;5052192;28;20410;-75
2022/08/13 05:53:18;;;;;;;6.90;3.67;;;18.80;1.00;;;;;;5053453;28;20821;-69
2022/08/13 05:55:44;;;;;;;2.80;2.60;;;18.80;1.00;;;;;;5053293;28;20475;-70
2022/08/13 05:58:12;;;;;;;4.67;3.53;;;18.80;1.00;;;;;;5052860;28;20222;-68
2022/08/13 06:03:25;;;;;;;4.37;3.27;;;18.90;16.10;;;;;;5053305;28;20481;-71
2022/08/13 06:06:02;;;;;;;3.53;3.23;;;18.90;13.60;;;;;;5053141;28;20452;-71
2022/08/13 06:08:30;;;;;;;4.60;3.40;;;18.90;27.20;;;;;;5051871;28;20461;-74
2022/08/13 06:10:59;;;;;;;4.37;3.07;;;19.00;4.00;;;;;;5053161;28;20389;-74
2022/08/13 06:13:26;;;;;;;4.57;4.27;;;19.00;24.80;;;;;;5053111;28;20508;-71
2022/08/13 06:15:58;;;;;;;8.30;3.50;;;19.10;1.00;;;;;;5052904;28;20412;-75
2022/08/13 06:18:29;;;;;;;3.23;3.03;;;19.10;1.00;;;;;;5052733;28;20413;-69
2022/08/13 06:20:57;;;;;;;3.20;3.00;;;19.20;9.20;;;;;;5052978;28;20394;-75
2022/08/13 06:23:24;;;;;;;3.50;3.17;;;19.40;1.00;;;;;;5053171;28;20405;-70
2022/08/13 06:25:52;;;;;;;3.20;3.00;;;19.50;1.00;;;;;;5052625;28;20420;-71
2022/08/13 06:28:28;;;;;;;3.67;2.87;;;19.70;1.00;;;;;;5052476;28;20417;-71
2022/08/13 06:31:01;;;;;;;3.63;2.90;;;19.90;1.00;;;;;;5053016;28;20475;-69
2022/08/13 06:33:28;;;;;;;3.80;3.50;;;20.00;1.00;;;;;;5051791;28;20762;-71
2022/08/13 06:35:55;;;;;;;3.10;2.80;;;20.20;1.00;;;;;;5051856;28;20405;-72
2022/08/13 06:38:25;;;;;;;2.87;2.50;;;20.30;1.00;;;;;;5052412;28;20428;-68
2022/08/13 06:40:52;;;;;;;3.33;3.03;;;20.50;1.00;;;;;;5052344;28;20459;-72
2022/08/13 06:43:19;;;;;;;4.53;3.40;;;20.50;1.00;;;;;;5052761;28;20417;-69
2022/08/13 06:45:46;;;;;;;3.40;3.10;;;20.60;1.00;;;;;;5052326;28;20409;-71
2022/08/13 06:48:13;;;;;;;3.40;3.10;;;20.80;1.00;;;;;;5052199;28;20504;-68
2022/08/13 06:50:39;;;;;;;4.07;3.40;;;20.90;1.00;;;;;;5052662;28;20989;-70
2022/08/13 06:53:06;;;;;;;4.10;3.20;;;21.20;1.00;;;;;;5052755;28;20453;-69
2022/08/13 06:55:36;;;;;;;5.33;3.90;;;21.40;1.00;;;;;;5052805;28;20167;-72
2022/08/13 06:58:07;;;;;;;3.30;3.10;;;21.50;1.00;;;;;;5051855;28;20937;-72
2022/08/13 07:00:35;;;;;;;2.83;2.53;;;21.70;1.00;;;;;;5052629;28;20400;-72
2022/08/13 07:03:02;;;;;;;3.03;2.83;;;21.80;1.00;;;;;;5052643;28;20451;-72
2022/08/13 07:05:40;;;;;;;4.23;3.60;;;21.90;1.00;;;;;;5052460;28;20409;-76
2022/08/13 07:08:08;;;;;;;3.67;3.03;;;21.90;1.00;;;;;;5051862;28;20909;-70
2022/08/13 07:10:36;;;;;;;6.23;3.00;;;22.00;1.00;;;;;;5052547;28;20433;-70
2022/08/13 07:13:02;;;;;;;3.33;3.00;;;22.10;1.00;;;;;;5052593;28;20452;-73
2022/08/13 07:15:29;;;;;;;3.10;2.90;;;22.30;99.90;;;;;;5052667;28;20397;-70
2022/08/13 07:17:56;;;;;;;3.40;3.10;;;22.30;1.00;;;;;;5051707;28;20763;-70
2022/08/13 07:20:23;;;;;;;2.83;2.63;;;22.50;99.90;;;;;;5051888;28;20402;-72
2022/08/13 07:22:49;;;;;;;4.00;2.60;;;22.60;1.00;;;;;;5052488;28;20790;-76
2022/08/13 07:25:17;;;;;;;5.10;3.13;;;22.60;1.00;;;;;;5052237;28;20405;-70
2022/08/13 07:27:44;;;;;;;3.70;3.00;;;22.70;99.90;;;;;;5051755;28;20504;-75
2022/08/13 07:30:14;;;;;;;5.57;2.30;;;22.80;99.90;;;;;;5052325;28;20398;-75
2022/08/13 07:32:40;;;;;;;3.00;2.70;;;22.80;99.90;;;;;;5052297;28;20449;-76
2022/08/13 07:35:08;;;;;;;3.33;2.97;;;23.00;99.90;;;;;;5052351;28;20774;-76
2022/08/13 07:37:39;;;;;;;5.43;3.07;;;23.10;99.90;;;;;;5051737;28;20824;-70
2022/08/13 07:40:10;;;;;;;3.17;2.97;;;23.20;99.90;;;;;;5051983;28;20405;-70
2022/08/13 07:42:41;;;;;;;5.37;2.40;;;23.40;99.90;;;;;;5051030;28;20774;-76
2022/08/13 07:45:08;;;;;;;2.93;2.70;;;23.60;99.90;;;;;;5051015;28;20422;-78
2022/08/13 07:47:35;;;;;;;2.67;2.47;;;23.70;99.90;;;;;;5053781;28;20429;-72
2022/08/13 07:50:05;;;;;;;2.83;2.30;;;23.80;99.90;;;;;;5055790;28;20409;-77
2022/08/13 07:52:32;;;;;;;3.67;2.77;;;23.90;99.90;;;;;;5054263;28;20534;-71
2022/08/13 07:55:00;;;;;;;3.30;2.90;;;23.90;99.90;;;;;;5054494;28;20551;-72
2022/08/13 07:57:29;;;;;;;3.43;2.50;;;24.00;99.90;;;;;;5054733;28;20428;-79
2022/08/13 07:59:56;;;;;;;3.73;2.47;;;24.20;99.90;;;;;;5054350;28;20759;-77
2022/08/13 08:02:25;;;;;;;7.40;2.67;;;24.20;99.90;;;;;;5054341;28;20421;-72
2022/08/13 08:04:54;;;;;;;3.00;2.80;;;24.30;99.90;;;;;;5054359;28;20865;-72
2022/08/13 08:07:22;;;;;;;4.53;3.23;;;24.40;99.90;;;;;;5054812;28;20970;-72
2022/08/13 08:09:50;;;;;;;5.40;2.20;;;24.50;99.90;;;;;;5055316;28;20429;-72
2022/08/13 08:15:11;;;;;;;3.03;2.70;;;24.70;99.90;;;;;;5055417;28;20397;-76
2022/08/13 08:17:37;;;;;;;3.43;2.37;;;24.70;99.90;;;;;;5055613;28;20425;-71
2022/08/13 08:20:04;;;;;;;2.70;2.50;;;24.80;99.90;;;;;;5054930;28;20404;-72
2022/08/13 08:22:31;;;;;;;6.63;2.90;;;24.90;99.90;;;;;;5055153;28;20397;-72
2022/08/13 08:24:57;;;;;;;6.60;3.00;;;25.00;99.90;;;;;;5055237;28;20409;-77
2022/08/13 08:27:25;;;;;;;5.40;2.50;;;25.00;99.90;;;;;;5054393;28;20508;-78
2022/08/13 08:29:51;;;;;;;7.90;3.30;;;25.10;99.90;;;;;;5055064;28;20406;-77
2022/08/13 08:32:18;;;;;;;6.67;2.80;;;25.20;99.90;;;;;;5054896;28;20453;-77
2022/08/13 08:34:46;;;;;;;5.63;2.60;;;25.40;99.90;;;;;;5054739;28;20406;-72
2022/08/13 08:42:56;;;;;;;3.43;2.10;;;25.80;99.90;;;;;;5055005;28;20408;-78
2022/08/13 08:45:24;;;;;;;3.00;2.20;;;25.90;99.90;;;;;;5053341;28;20413;-71
2022/08/13 08:47:52;;;;;;;2.33;2.13;;;26.10;99.90;;;;;;5054055;28;20948;-78
2022/08/13 08:50:24;;;;;;;2.43;2.23;;;26.20;99.90;;;;;;5054829;28;20406;-77
2022/08/13 08:55:37;;;;;;;2.63;2.13;;;26.60;99.90;;;;;;5054906;28;20400;-77
2022/08/13 08:58:07;;;;;;;4.73;2.70;;;26.80;99.90;;;;;;5052105;28;20425;-77
2022/08/13 09:00:36;;;;;;;3.60;2.60;;;27.00;99.90;;;;;;5054504;28;20433;-76
2022/08/13 09:03:03;;;;;;;8.97;3.20;;;27.20;99.90;;;;;;5054398;28;20405;-70
2022/08/13 09:05:29;;;;;;;2.97;2.77;;;27.40;99.90;;;;;;5053477;28;20410;-71
2022/08/13 09:07:54;;;;;;;5.73;2.97;;;27.50;99.90;;;;;;5052355;28;20520;-76
2022/08/13 09:10:23;;;;;;;4.27;2.57;;;27.70;99.90;;;;;;5052812;28;20232;-77
2022/08/13 09:12:50;;;;;;;3.10;2.87;;;27.80;99.90;;;;;;5052781;28;20285;-76
2022/08/13 09:15:21;;;;;;;6.73;2.57;;;27.90;99.90;;;;;;5054090;28;20485;-78
2022/08/13 09:17:49;;;;;;;2.80;2.60;;;28.00;99.90;;;;;;5052225;28;20463;-72
2022/08/13 09:20:20;;;;;;;2.90;2.70;;;28.10;99.90;;;;;;5054067;28;20401;-71
2022/08/13 09:22:58;;;;;;;3.73;2.00;;;28.20;99.90;;;;;;5054075;28;20409;-71
2022/08/13 09:25:26;;;;;;;3.70;2.37;;;28.30;99.90;;;;;;5053898;28;20424;-71
2022/08/13 09:27:53;;;;;;;2.87;2.67;;;28.40;99.90;;;;;;5053079;28;20425;-72
2022/08/13 09:30:19;;;;;;;2.57;2.00;;;28.60;99.90;;;;;;5052514;28;20417;-77
2022/08/13 09:32:48;;;;;;;2.53;2.07;;;28.70;99.90;;;;;;5053786;28;20448;-71
2022/08/13 09:35:14;;;;;;;2.93;2.73;;;28.90;99.90;;;;;;5053702;28;20459;-72
2022/08/13 09:37:40;;;;;;;2.30;2.10;;;29.10;99.90;;;;;;5053334;28;20449;-77
2022/08/13 09:40:12;;;;;;;3.47;3.17;;;29.20;99.90;;;;;;5052975;28;20504;-77
2022/08/13 09:42:57;;;;;;;3.80;2.73;;;29.30;99.90;;;;;;5052690;28;20410;-77
2022/08/13 09:45:25;;;;;;;3.67;2.80;;;29.40;99.90;;;;;;5052028;28;20496;-72
2022/08/13 09:47:54;;;;;;;4.87;2.90;;;29.70;99.90;;;;;;5052836;28;20425;-72
2022/08/13 09:50:21;;;;;;;9.60;2.70;;;30.10;99.90;;;;;;5053680;28;20397;-72
2022/08/13 09:52:51;;;;;;;3.37;2.43;;;30.50;99.90;;;;;;5052336;28;20484;-72
2022/08/13 09:55:17;;;;;;;8.90;2.70;;;30.70;99.90;;;;;;5053417;28;20402;-77
2022/08/13 09:57:49;;;;;;;2.40;2.20;;;30.90;99.90;;;;;;5052779;28;20424;-77
2022/08/13 10:00:24;;;;;;;2.87;2.67;;;31.10;99.90;;;;;;5053435;28;20402;-71
2022/08/13 10:02:56;;;;;;;2.53;2.30;;;31.50;99.90;;;;;;5053236;28;20400;-73
2022/08/13 10:05:22;;;;;;;2.60;2.40;;;31.60;99.90;;;;;;5053235;28;20424;-76
2022/08/13 10:07:48;;;;;;;3.80;2.70;;;31.70;99.90;;;;;;5051517;28;20433;-72
2022/08/13 10:10:15;;;;;;;4.07;3.73;;;31.90;99.90;;;;;;5052541;28;20841;-71
2022/08/13 10:12:42;;;;;;;3.40;3.20;;;32.10;99.90;;;;;;5051517;28;20273;-76
2022/08/13 10:15:12;;;;;;;4.40;4.10;;;32.20;99.90;;;;;;5052118;28;20405;-71
2022/08/13 10:17:55;;;;;;;3.50;3.30;;;32.40;99.90;;;;;;5052394;28;20413;-77
2022/08/13 10:20:30;;;;;;;2.97;2.77;;;32.50;99.90;;;;;;5053250;28;20408;-74
2022/08/13 10:22:57;;;;;;;4.43;2.60;;;32.70;99.90;;;;;;5053002;28;20893;-72
2022/08/13 10:25:24;;;;;;;2.80;2.60;;;32.90;99.90;;;;;;5052835;28;20397;-73
2022/08/13 10:27:51;;;;;;;2.10;1.90;;;33.10;99.90;;;;;;5052259;28;20519;-78
2022/08/13 10:30:19;;;;;;;2.63;2.20;;;33.40;99.90;;;;;;5053060;28;20404;-72
2022/08/13 10:32:46;;;;;;;2.60;2.40;;;33.00;99.90;;;;;;5051958;28;20511;-71
2022/08/13 10:35:12;;;;;;;2.60;2.40;;;32.40;99.90;;;;;;5052780;28;20166;-77
2022/08/13 10:37:53;;;;;;;3.23;2.23;;;31.90;99.90;;;;;;5052100;28;20418;-72
2022/08/13 10:40:20;;;;;;;4.07;2.57;;;31.00;99.90;;;;;;5052801;28;20181;-76
2022/08/13 10:42:46;;;;;;;8.30;2.47;;;30.20;99.90;;;;;;5052875;28;20735;-70
2022/08/13 10:45:13;;;;;;;2.67;2.43;;;29.40;99.90;;;;;;5051864;28;20413;-71
2022/08/13 10:47:45;;;;;;;2.67;2.47;;;29.30;99.90;;;;;;5052144;28;20425;-72
2022/08/13 10:50:13;;;;;;;4.27;3.03;;;29.80;99.90;;;;;;5051619;28;20413;-77
2022/08/13 10:52:39;;;;;;;2.43;2.23;;;30.70;99.90;;;;;;5052707;28;20453;-71
2022/08/13 10:55:08;;;;;;;2.43;2.20;;;31.50;99.90;;;;;;5052870;28;20401;-75
2022/08/13 10:57:36;;;;;;;3.93;1.97;;;32.10;99.90;;;;;;5051889;28;20685;-71
2022/08/13 11:00:03;;;;;;;3.10;2.47;;;31.90;99.90;;;;;;5052740;28;20441;-76
2022/08/13 11:02:29;;;;;;;2.07;1.97;;;31.30;99.90;;;;;;5052757;28;20947;-71
2022/08/13 11:04:55;;;;;;;2.90;2.70;;;30.70;99.90;;;;;;5052738;28;20401;-76
2022/08/13 11:07:21;;;;;;;2.50;2.40;;;31.00;99.90;;;;;;5050886;28;20206;-77
2022/08/13 11:09:47;;;;;;;3.40;2.60;;;31.60;99.90;;;;;;5051233;28;20198;-76
2022/08/13 11:12:12;;;;;;;2.90;2.60;;;31.80;99.90;;;;;;5052334;28;20452;-77
2022/08/13 11:14:41;;;;;;;2.67;2.30;;;30.80;99.90;;;;;;5052536;28;20213;-71
2022/08/13 11:17:09;;;;;;;2.40;2.20;;;30.60;99.90;;;;;;5051620;28;20159;-72
2022/08/13 11:19:37;;;;;;;2.33;2.13;;;31.10;99.90;;;;;;5052542;28;20931;-70
2022/08/13 11:22:03;;;;;;;2.33;2.13;;;32.10;99.90;;;;;;5055506;28;20397;-77
2022/08/13 11:24:28;;;;;;;4.00;2.43;;;32.90;99.90;;;;;;5055084;28;20472;-77
2022/08/13 11:26:54;;;;;;;5.30;2.00;;;33.70;99.90;;;;;;5055793;28;20210;-77
2022/08/13 11:29:20;;;;;;;2.90;2.60;;;33.90;99.90;;;;;;5054925;28;20879;-71
2022/08/13 11:31:45;;;;;;;3.17;1.80;;;34.40;99.90;;;;;;5054667;28;20205;-76
2022/08/13 11:34:11;;;;;;;3.40;1.90;;;34.50;99.90;;;;;;5055946;28;20166;-76
2022/08/13 11:36:37;;;;;;;2.43;2.13;;;34.70;99.90;;;;;;5055238;28;20155;-76
2022/08/13 11:39:03;;;;;;;4.50;2.33;;;34.70;99.90;;;;;;5056047;28;20693;-74
2022/08/13 11:41:28;;;;;;;2.70;2.33;;;34.60;99.90;;;;;;5054845;28;20296;-77
2022/08/13 11:43:54;;;;;;;2.43;2.33;;;34.30;99.90;;;;;;5054708;28;20170;-76
2022/08/13 11:46:21;;;;;;;3.30;1.73;;;33.90;99.90;;;;;;5055237;28;20253;-76
2022/08/13 11:48:47;;;;;;;3.67;2.20;;;34.20;99.90;;;;;;5055807;28;20273;-77
2022/08/13 11:51:13;;;;;;;2.30;2.10;;;34.70;99.90;;;;;;5054531;28;20507;-71
2022/08/13 11:53:39;;;;;;;4.37;3.20;;;35.40;99.90;;;;;;5054671;28;20995;-71
2022/08/13 11:56:05;;;;;;;4.77;2.13;;;35.70;99.90;;;;;;5053397;28;20662;-76
2022/08/13 11:58:33;;;;;;;4.13;2.63;;;35.90;99.90;;;;;;5054562;28;20202;-76
2022/08/13 12:00:59;;;;;;;3.50;2.10;;;35.60;99.90;;;;;;5055699;28;20411;-72
2022/08/13 12:03:26;;;;;;;1.90;1.80;;;36.00;99.90;;;;;;5055554;28;20651;-77
2022/08/13 12:05:52;;;;;;;2.30;2.20;;;35.60;99.90;;;;;;5054155;28;20781;-75
2022/08/13 12:08:19;;;;;;;4.73;2.00;;;34.90;99.90;;;;;;5053399;28;20433;-71
2022/08/13 12:10:47;;;;;;;2.60;2.00;;;34.30;99.90;;;;;;5055068;28;20498;-74
2022/08/13 12:13:13;;;;;;;4.07;2.53;;;34.30;99.90;;;;;;5053766;28;20552;-77
2022/08/13 12:15:39;;;;;;;5.07;3.00;;;33.90;99.90;;;;;;5054265;28;20412;-77
2022/08/13 12:18:05;;;;;;;2.03;1.93;;;33.20;99.90;;;;;;5054526;28;20516;-77
2022/08/13 12:20:31;;;;;;;7.53;2.37;;;32.20;99.90;;;;;;5055180;28;20174;-75
2022/08/13 12:22:59;;;;;;;2.63;2.43;;;31.50;99.90;;;;;;5055282;28;20409;-76
2022/08/13 12:25:27;;;;;;;3.50;2.47;;;31.10;99.90;;;;;;5053976;28;20577;-75
2022/08/13 12:28:16;;;;;;;2.77;2.40;;;31.60;99.90;;;;;;5053090;28;20980;-77
2022/08/13 12:30:42;;;;;;;1.90;1.80;;;32.70;99.90;;;;;;5053747;28;20429;-75
2022/08/13 12:33:09;;;;;;;2.43;2.23;;;33.60;99.90;;;;;;5053989;28;20449;-76
2022/08/13 12:35:35;;;;;;;3.40;2.27;;;33.70;99.90;;;;;;5055029;28;20404;-77
2022/08/13 12:38:07;;;;;;;2.60;2.10;;;33.70;99.90;;;;;;5052682;28;20425;-77
2022/08/13 12:40:33;;;;;;;3.93;2.70;;;33.70;99.90;;;;;;5054762;28;20394;-77
2022/08/13 12:42:59;;;;;;;2.30;2.10;;;33.50;99.90;;;;;;5053696;28;20394;-78
2022/08/13 12:45:24;;;;;;;3.20;2.17;;;33.40;99.90;;;;;;5053957;28;20258;-78
2022/08/13 12:47:50;;;;;;;2.73;2.53;;;33.30;99.90;;;;;;5053053;28;20225;-75
2022/08/13 12:50:17;;;;;;;3.43;3.00;;;33.00;99.90;;;;;;5053432;28;20635;-75
2022/08/13 12:52:43;;;;;;;3.10;2.33;;;32.50;99.90;;;;;;5054374;28;20186;-77
2022/08/13 12:55:09;;;;;;;2.57;1.70;;;32.30;99.90;;;;;;5053396;28;20405;-77
2022/08/13 12:57:36;;;;;;;5.40;2.17;;;32.10;99.90;;;;;;5052703;28;20195;-77
2022/08/13 13:00:06;;;;;;;2.40;2.30;;;31.90;99.90;;;;;;5053470;28;20174;-74
2022/08/13 13:02:33;;;;;;;2.73;2.43;;;31.40;99.90;;;;;;5053637;28;20747;-77
2022/08/13 13:04:59;;;;;;;2.40;2.20;;;30.90;99.90;;;;;;5054819;28;20405;-74
2022/08/13 13:07:24;;;;;;;3.00;2.40;;;30.60;99.90;;;;;;5052732;28;20520;-75
2022/08/13 13:09:53;;;;;;;3.10;2.60;;;30.40;99.90;;;;;;5054206;28;20590;-75
2022/08/13 13:12:19;;;;;;;2.37;2.17;;;30.00;99.90;;;;;;5054367;28;20521;-74
2022/08/13 13:14:45;;;;;;;2.27;2.00;;;29.90;99.90;;;;;;5054497;28;20390;-74
2022/08/13 13:17:11;;;;;;;2.47;2.27;;;30.00;99.90;;;;;;5052748;28;20416;-74